createdAt,value
2023-03-02T00:03:05.883Z,66.5
2023-03-02T00:13:05.770Z,65.5
2023-03-02T00:23:05.980Z,66
2023-03-02T00:33:05.975Z,64.5
2023-03-02T00:43:05.905Z,64
2023-03-02T00:53:05.950Z,62.5
2023-03-02T01:03:05.928Z,62.5
2023-03-02T01:13:05.957Z,60.5
2023-03-02T01:23:05.876Z,62
2023-03-02T01:33:05.957Z,62
2023-03-02T01:43:05.861Z,62
2023-03-02T01:53:05.944Z,62
2023-03-02T02:03:06.072Z,62
2023-03-02T02:13:05.944Z,64
2023-03-02T02:23:06.070Z,62.5
2023-03-02T02:33:05.932Z,62
2023-03-02T02:43:06.046Z,62.5
2023-03-02T02:53:05.921Z,62.5
2023-03-02T03:03:06.150Z,64
2023-03-02T03:13:05.921Z,64
2023-03-02T03:23:06.038Z,64
2023-03-02T03:33:06.106Z,66.5
2023-03-02T03:43:06.039Z,67.5
2023-03-02T03:53:06.133Z,66.5
2023-03-02T04:03:06.127Z,66.5
2023-03-02T04:13:06.114Z,65.5
2023-03-02T04:23:06.141Z,64.5
2023-03-02T04:33:06.141Z,65
2023-03-02T04:43:06.222Z,66
2023-03-02T04:53:06.124Z,66
2023-03-02T05:03:06.262Z,66
2023-03-02T05:13:06.117Z,64.5
2023-03-02T05:23:06.263Z,65.5
2023-03-02T05:33:06.120Z,64.5
2023-03-02T05:43:06.227Z,62.5
2023-03-02T05:53:06.086Z,60.5
2023-03-02T06:03:06.244Z,61.5
2023-03-02T06:13:06.272Z,60
2023-03-02T06:23:06.202Z,62
2023-03-02T06:33:06.273Z,64.5
2023-03-02T06:43:06.222Z,62.5
2023-03-02T06:53:06.260Z,61.5
2023-03-02T07:03:06.314Z,62
2023-03-02T07:13:08.704Z,59
2023-03-02T07:23:06.393Z,58.5
2023-03-02T07:33:06.252Z,58.5
2023-03-02T07:43:06.387Z,58.5
2023-03-02T07:53:06.274Z,58.5
2023-03-02T08:03:06.443Z,58.5
2023-03-02T08:13:06.271Z,58.5
2023-03-02T08:23:06.386Z,58.5
2023-03-02T08:33:07.263Z,58.5
2023-03-02T08:43:08.087Z,56.5
2023-03-02T08:53:06.450Z,56
2023-03-02T09:03:06.387Z,56
2023-03-02T09:13:08.417Z,56.5
2023-03-02T09:23:06.352Z,56.5
2023-03-02T09:33:06.469Z,56.5
2023-03-02T09:43:06.379Z,57.5
2023-03-02T09:53:06.449Z,56.5
2023-03-02T10:03:16.474Z,56.5
2023-03-02T10:13:09.154Z,56.5
2023-03-02T10:23:06.683Z,56.5
2023-03-02T10:33:06.462Z,56.5
2023-03-02T10:43:06.594Z,56.5
2023-03-02T10:53:06.665Z,56.5
2023-03-02T11:03:06.514Z,56.5
2023-03-02T11:13:06.594Z,56.5
2023-03-02T11:23:06.487Z,56.5
2023-03-02T11:33:06.588Z,56.5
2023-03-02T11:43:07.079Z,56.5
2023-03-02T11:53:06.588Z,55
2023-03-02T12:03:07.487Z,54.5
2023-03-02T12:13:06.586Z,55.5
2023-03-02T12:23:06.492Z,56
2023-03-02T12:33:06.579Z,56
2023-03-02T12:43:06.747Z,56
2023-03-02T12:53:07.228Z,56
2023-03-02T13:03:06.833Z,56
2023-03-02T13:13:06.684Z,56
2023-03-02T13:23:06.701Z,56
2023-03-02T13:33:06.683Z,54.5
2023-03-02T13:43:07.295Z,54.5
2023-03-02T13:53:06.954Z,54.5
2023-03-02T14:03:06.779Z,54.5
2023-03-02T14:13:06.946Z,54.5
2023-03-02T14:23:07.613Z,54.5
2023-03-02T14:33:06.791Z,54.5
2023-03-02T14:43:06.721Z,56
2023-03-02T14:53:06.838Z,54.5
2023-03-02T15:03:06.761Z,54.5
2023-03-02T15:13:06.766Z,56
2023-03-02T15:23:06.910Z,56
2023-03-02T15:33:06.771Z,56
2023-03-02T15:43:06.865Z,56
2023-03-02T15:53:06.756Z,56
2023-03-02T16:03:06.889Z,56
2023-03-02T16:13:06.748Z,56
2023-03-02T16:23:06.860Z,56
2023-03-02T16:33:06.957Z,56
2023-03-02T16:43:06.842Z,56
2023-03-02T16:53:06.941Z,56
2023-03-02T17:03:06.867Z,56.5
2023-03-02T17:13:06.946Z,56.5
2023-03-02T17:23:07.115Z,57
2023-03-02T17:33:06.922Z,56.5
2023-03-02T17:43:06.837Z,56.5
2023-03-02T17:53:07.355Z,58
2023-03-02T18:03:07.009Z,58
2023-03-02T18:13:06.824Z,58
2023-03-02T18:23:06.951Z,58
2023-03-02T18:33:07.038Z,58
2023-03-02T18:43:06.959Z,58
2023-03-02T18:53:07.024Z,58
2023-03-02T19:03:06.951Z,58
2023-03-02T19:13:07.012Z,58
2023-03-02T19:23:06.946Z,58
2023-03-02T19:33:07.040Z,58
2023-03-02T19:43:06.951Z,58
2023-03-02T19:53:07.008Z,58
2023-03-02T20:03:07.173Z,58
2023-03-02T20:13:06.999Z,58
2023-03-02T20:23:07.117Z,58
2023-03-02T20:33:07.006Z,58
2023-03-02T20:43:07.117Z,58
2023-03-02T20:53:09.219Z,58
2023-03-02T21:03:07.434Z,58
2023-03-02T21:13:07.238Z,58
2023-03-02T21:23:08.028Z,58
2023-03-02T21:33:08.862Z,58
2023-03-02T21:43:07.949Z,58
2023-03-02T21:53:07.737Z,58
2023-03-02T22:03:07.250Z,58
2023-03-02T22:13:08.206Z,58
2023-03-02T22:23:07.629Z,58
2023-03-02T22:33:07.211Z,58
2023-03-02T22:43:07.131Z,58
2023-03-02T22:53:07.213Z,58
2023-03-02T23:03:07.129Z,58
2023-03-02T23:13:07.201Z,58
2023-03-02T23:23:07.130Z,58
2023-03-02T23:33:07.189Z,58
2023-03-02T23:43:07.314Z,58
2023-03-02T23:53:07.187Z,58
